createdAt,value
2023-03-02T00:02:13.888Z,-0.39
2023-03-02T00:04:49.020Z,-0.42
2023-03-02T00:07:25.331Z,-0.44
2023-03-02T00:09:55.365Z,-0.44
2023-03-02T00:12:24.764Z,-0.44
2023-03-02T00:14:53.655Z,-0.43
2023-03-02T00:17:28.544Z,-0.42
2023-03-02T00:20:12.260Z,-0.38
2023-03-02T00:22:43.363Z,-0.38
2023-03-02T00:25:14.340Z,-0.37
2023-03-02T00:27:43.418Z,-0.36
2023-03-02T00:30:13.665Z,-0.32
2023-03-02T00:32:42.975Z,-0.33
2023-03-02T00:35:12.182Z,-0.29
2023-03-02T00:37:41.041Z,-0.25
2023-03-02T00:40:10.516Z,-0.20
2023-03-02T00:42:40.341Z,-0.17
2023-03-02T00:45:09.820Z,-0.10
2023-03-02T00:47:39.359Z,-0.06
2023-03-02T00:50:09.697Z,-0.02
2023-03-02T00:52:38.842Z,0.05
2023-03-02T00:55:08.564Z,0.11
2023-03-02T00:57:37.366Z,0.15
2023-03-02T01:00:08.497Z,0.16
2023-03-02T01:02:44.711Z,0.12
2023-03-02T01:05:18.402Z,0.22
2023-03-02T01:07:47.605Z,0.26
2023-03-02T01:10:17.361Z,0.27
2023-03-02T01:12:46.232Z,0.29
2023-03-02T01:15:15.124Z,0.31
2023-03-02T01:17:44.658Z,0.37
2023-03-02T01:20:14.125Z,0.44
2023-03-02T01:22:45.231Z,0.47
2023-03-02T01:25:14.566Z,0.49
2023-03-02T01:27:43.453Z,0.59
2023-03-02T01:30:13.114Z,0.64
2023-03-02T01:32:42.040Z,0.69
2023-03-02T01:35:11.217Z,0.71
2023-03-02T01:37:40.228Z,0.82
2023-03-02T01:40:10.072Z,0.83
2023-03-02T01:42:40.948Z,0.87
2023-03-02T01:45:47.125Z,0.91
2023-03-02T01:48:47.904Z,0.99
2023-03-02T01:51:26.083Z,1.00
2023-03-02T01:54:04.676Z,0.95
2023-03-02T01:56:40.558Z,1.00
2023-03-02T01:59:15.443Z,1.07
2023-03-02T02:01:51.120Z,1.12
2023-03-02T02:04:22.520Z,1.19
2023-03-02T02:07:03.873Z,1.17
2023-03-02T02:09:47.828Z,1.17
2023-03-02T02:12:19.873Z,1.22
2023-03-02T02:14:49.703Z,1.22
2023-03-02T02:17:19.939Z,1.21
2023-03-02T02:20:08.028Z,1.29
2023-03-02T02:23:04.489Z,1.44
2023-03-02T02:25:55.971Z,1.54
2023-03-02T02:28:30.802Z,1.61
2023-03-02T02:31:15.465Z,1.57
2023-03-02T02:33:47.939Z,1.55
2023-03-02T02:36:24.093Z,1.61
2023-03-02T02:38:56.575Z,1.73
2023-03-02T02:41:30.442Z,1.86
2023-03-02T02:43:59.358Z,2.02
2023-03-02T02:46:28.265Z,2.13
2023-03-02T02:48:58.384Z,2.31
2023-03-02T02:51:30.186Z,2.59
2023-03-02T02:54:03.334Z,2.83
2023-03-02T02:56:40.264Z,3.06
2023-03-02T02:59:20.513Z,3.33
2023-03-02T03:01:51.727Z,3.72
2023-03-02T03:04:25.259Z,4.27
2023-03-02T03:06:57.385Z,4.76
2023-03-02T03:09:27.750Z,5.02
2023-03-02T03:12:02.733Z,5.10
2023-03-02T03:14:37.231Z,5.01
2023-03-02T03:17:13.051Z,4.84
2023-03-02T03:19:52.582Z,4.66
2023-03-02T03:22:21.955Z,4.54
2023-03-02T03:24:52.321Z,4.45
2023-03-02T03:27:21.750Z,4.42
2023-03-02T03:29:50.593Z,4.37
2023-03-02T03:32:22.006Z,4.32
2023-03-02T03:34:54.283Z,4.20
2023-03-02T03:37:34.451Z,4.23
2023-03-02T03:40:03.433Z,4.19
2023-03-02T03:42:32.632Z,4.24
2023-03-02T03:45:02.348Z,4.28
2023-03-02T03:47:35.305Z,4.36
2023-03-02T03:50:06.300Z,4.43
2023-03-02T03:52:35.429Z,4.48
2023-03-02T03:55:11.464Z,4.51
2023-03-02T03:57:41.615Z,4.46
2023-03-02T04:00:15.648Z,4.39
2023-03-02T04:02:49.220Z,4.32
2023-03-02T04:05:19.263Z,4.35
2023-03-02T04:07:52.219Z,4.43
2023-03-02T04:10:21.923Z,4.52
2023-03-02T04:12:53.124Z,4.53
2023-03-02T04:15:22.111Z,4.59
2023-03-02T04:17:53.061Z,4.64
2023-03-02T04:20:24.844Z,4.79
2023-03-02T04:22:57.075Z,4.97
2023-03-02T04:25:29.231Z,5.14
2023-03-02T04:28:15.946Z,5.24
2023-03-02T04:30:46.791Z,5.52
2023-03-02T04:33:15.855Z,5.59
2023-03-02T04:35:44.891Z,5.68
2023-03-02T04:38:14.277Z,5.80
2023-03-02T04:40:43.194Z,5.85
2023-03-02T04:43:12.005Z,5.78
2023-03-02T04:45:41.279Z,5.74
2023-03-02T04:48:10.062Z,5.71
2023-03-02T04:50:39.072Z,5.74
2023-03-02T04:53:08.148Z,5.75
2023-03-02T04:55:36.939Z,5.80
2023-03-02T04:58:06.211Z,5.80
2023-03-02T05:00:36.186Z,5.65
2023-03-02T05:03:06.645Z,5.58
2023-03-02T05:05:35.524Z,5.62
2023-03-02T05:08:04.565Z,5.71
2023-03-02T05:10:33.485Z,5.78
2023-03-02T05:13:03.110Z,5.65
2023-03-02T05:15:38.404Z,5.53
2023-03-02T05:18:10.571Z,5.42
2023-03-02T05:20:40.249Z,5.49
2023-03-02T05:23:10.691Z,5.64
2023-03-02T05:25:43.985Z,5.54
2023-03-02T05:28:13.731Z,5.25
2023-03-02T05:30:42.953Z,5.05
2023-03-02T05:33:11.766Z,4.91
2023-03-02T05:35:40.789Z,4.90
2023-03-02T05:38:10.444Z,4.91
2023-03-02T05:40:40.711Z,4.95
2023-03-02T05:43:09.643Z,4.97
2023-03-02T05:45:39.611Z,5.05
2023-03-02T05:48:08.806Z,5.08
2023-03-02T05:50:37.684Z,5.35
2023-03-02T05:53:06.709Z,5.45
2023-03-02T05:55:37.610Z,5.58
2023-03-02T05:58:15.210Z,5.63
2023-03-02T06:00:45.862Z,5.57
2023-03-02T06:03:16.514Z,5.51
2023-03-02T06:05:45.600Z,5.68
2023-03-02T06:08:14.451Z,5.79
2023-03-02T06:10:43.351Z,5.86
2023-03-02T06:13:12.436Z,5.84
2023-03-02T06:15:41.304Z,5.85
2023-03-02T06:18:10.124Z,5.74
2023-03-02T06:20:39.321Z,5.70
2023-03-02T06:23:08.238Z,5.61
2023-03-02T06:25:40.074Z,5.52
2023-03-02T06:28:09.581Z,5.36
2023-03-02T06:30:39.494Z,5.22
2023-03-02T06:33:09.420Z,5.06
2023-03-02T06:35:38.465Z,4.97
2023-03-02T06:38:17.521Z,4.77
2023-03-02T06:40:46.820Z,4.91
2023-03-02T06:43:16.131Z,4.97
2023-03-02T06:45:52.428Z,4.93
2023-03-02T06:48:33.550Z,5.01
2023-03-02T06:51:05.886Z,4.91
2023-03-02T06:53:34.720Z,5.14
2023-03-02T06:56:03.483Z,5.52
2023-03-02T06:58:32.250Z,5.68
2023-03-02T07:01:01.479Z,5.82
2023-03-02T07:03:37.423Z,5.78
2023-03-02T07:06:17.895Z,5.81
2023-03-02T07:08:48.356Z,5.81
2023-03-02T07:11:19.817Z,5.73
2023-03-02T07:13:48.649Z,5.61
2023-03-02T07:16:18.101Z,5.54
2023-03-02T07:18:46.941Z,5.57
2023-03-02T07:21:15.695Z,5.54
2023-03-02T07:23:44.544Z,5.49
2023-03-02T07:26:13.301Z,5.53
2023-03-02T07:28:44.012Z,5.56
2023-03-02T07:31:13.395Z,5.67
2023-03-02T07:33:42.902Z,5.80
2023-03-02T07:36:11.706Z,5.88
2023-03-02T07:38:40.551Z,6.00
2023-03-02T07:41:10.438Z,6.12
2023-03-02T07:43:39.548Z,6.17
2023-03-02T07:46:08.486Z,6.08
2023-03-02T07:48:37.430Z,6.13
2023-03-02T07:51:07.365Z,6.11
2023-03-02T07:53:36.480Z,6.08
2023-03-02T07:56:12.445Z,5.95
2023-03-02T07:58:41.713Z,6.03
2023-03-02T08:01:11.535Z,6.05
2023-03-02T08:03:40.719Z,6.02
2023-03-02T08:06:12.298Z,6.11
2023-03-02T08:08:41.112Z,6.22
2023-03-02T08:11:12.784Z,6.34
2023-03-02T08:13:44.519Z,6.61
2023-03-02T08:16:15.508Z,6.66
2023-03-02T08:18:44.726Z,6.58
2023-03-02T08:21:19.858Z,6.35
2023-03-02T08:23:49.458Z,6.32
2023-03-02T08:26:19.354Z,6.36
2023-03-02T08:28:48.561Z,6.26
2023-03-02T08:31:17.519Z,6.26
2023-03-02T08:33:46.911Z,6.31
2023-03-02T08:36:18.682Z,6.13
2023-03-02T08:38:48.291Z,6.06
2023-03-02T08:41:20.743Z,5.83
2023-03-02T08:43:50.301Z,5.59
2023-03-02T08:46:19.843Z,5.68
2023-03-02T08:48:51.862Z,5.76
2023-03-02T08:51:24.095Z,6.01
2023-03-02T08:53:57.966Z,6.51
2023-03-02T08:56:33.173Z,6.91
2023-03-02T08:59:08.682Z,7.16
2023-03-02T09:01:39.311Z,7.87
2023-03-02T09:04:09.960Z,8.55
2023-03-02T09:06:41.964Z,9.01
2023-03-02T09:09:16.009Z,9.08
2023-03-02T09:11:45.573Z,8.73
2023-03-02T09:14:14.476Z,8.15
2023-03-02T09:16:43.651Z,7.51
2023-03-02T09:19:14.419Z,6.84
2023-03-02T09:21:43.280Z,6.30
2023-03-02T09:24:12.405Z,5.81
2023-03-02T09:26:41.325Z,5.38
2023-03-02T09:29:10.487Z,5.04
2023-03-02T09:31:39.445Z,4.71
2023-03-02T09:34:09.313Z,4.48
2023-03-02T09:36:38.993Z,4.27
2023-03-02T09:39:12.867Z,4.11
2023-03-02T09:42:02.681Z,4.03
2023-03-02T09:45:08.483Z,3.95
2023-03-02T09:48:00.234Z,3.82
2023-03-02T09:50:36.081Z,3.78
2023-03-02T09:53:26.277Z,3.75
2023-03-02T09:56:00.828Z,3.73
2023-03-02T09:58:36.739Z,3.63
2023-03-02T10:01:19.566Z,3.52
2023-03-02T10:03:57.385Z,3.46
2023-03-02T10:06:27.417Z,3.44
2023-03-02T10:08:56.937Z,3.44
2023-03-02T10:11:43.365Z,3.34
2023-03-02T10:14:24.461Z,3.43
2023-03-02T10:17:23.760Z,3.31
2023-03-02T10:20:01.332Z,3.13
2023-03-02T10:22:38.867Z,3.18
2023-03-02T10:25:34.798Z,3.16
2023-03-02T10:28:18.324Z,3.09
2023-03-02T10:30:54.145Z,3.07
2023-03-02T10:33:25.324Z,2.98
2023-03-02T10:35:54.956Z,2.90
2023-03-02T10:38:25.995Z,2.88
2023-03-02T10:41:07.580Z,2.79
2023-03-02T10:44:07.447Z,2.69
2023-03-02T10:46:42.051Z,2.67
2023-03-02T10:49:31.412Z,2.67
2023-03-02T10:52:04.994Z,2.64
2023-03-02T10:54:36.886Z,2.62
2023-03-02T10:57:26.478Z,2.58
2023-03-02T11:00:01.904Z,2.49
2023-03-02T11:02:38.276Z,2.57
2023-03-02T11:05:30.471Z,2.58
2023-03-02T11:08:05.339Z,2.52
2023-03-02T11:10:37.352Z,2.53
2023-03-02T11:13:29.085Z,2.53
2023-03-02T11:16:01.066Z,2.54
2023-03-02T11:18:36.220Z,2.56
2023-03-02T11:21:15.628Z,2.58
2023-03-02T11:23:56.800Z,2.60
2023-03-02T11:26:48.629Z,2.58
2023-03-02T11:29:26.968Z,2.58
2023-03-02T11:32:20.156Z,2.52
2023-03-02T11:35:04.025Z,2.51
2023-03-02T11:37:46.477Z,2.50
2023-03-02T11:40:41.822Z,2.54
2023-03-02T11:43:12.964Z,2.60
2023-03-02T11:45:57.837Z,2.60
2023-03-02T11:48:49.627Z,2.58
2023-03-02T11:51:24.238Z,2.68
2023-03-02T11:54:29.540Z,2.73
2023-03-02T11:56:59.639Z,2.78
2023-03-02T11:59:30.991Z,2.78
2023-03-02T12:02:02.245Z,2.76
2023-03-02T12:04:37.471Z,2.80
2023-03-02T12:07:23.487Z,2.75
2023-03-02T12:10:33.619Z,2.65
2023-03-02T12:13:23.994Z,2.64
2023-03-02T12:15:52.912Z,2.59
2023-03-02T12:18:21.596Z,2.56
2023-03-02T12:21:21.411Z,2.52
2023-03-02T12:23:50.639Z,2.56
2023-03-02T12:26:22.482Z,2.58
2023-03-02T12:29:14.315Z,2.59
2023-03-02T12:31:52.494Z,2.62
2023-03-02T12:34:34.758Z,2.59
2023-03-02T12:37:22.357Z,2.67
2023-03-02T12:40:16.033Z,2.69
2023-03-02T12:43:17.333Z,2.70
2023-03-02T12:46:16.765Z,2.76
2023-03-02T12:48:59.322Z,2.76
2023-03-02T12:51:33.079Z,2.71
2023-03-02T12:54:14.871Z,2.72
2023-03-02T12:56:43.874Z,2.70
2023-03-02T12:59:27.686Z,2.63
2023-03-02T13:02:19.149Z,2.65
2023-03-02T13:05:00.610Z,2.63
2023-03-02T13:07:51.641Z,2.62
2023-03-02T13:10:49.332Z,2.62
2023-03-02T13:13:28.520Z,2.57
2023-03-02T13:16:18.993Z,2.61
2023-03-02T13:18:50.458Z,2.58
2023-03-02T13:21:20.599Z,2.41
2023-03-02T13:23:52.461Z,2.53
2023-03-02T13:26:32.539Z,2.48
2023-03-02T13:29:19.949Z,2.53
2023-03-02T13:31:50.088Z,2.55
2023-03-02T13:34:33.251Z,2.55
2023-03-02T13:37:02.462Z,2.50
2023-03-02T13:39:35.233Z,2.53
2023-03-02T13:42:04.797Z,2.51
2023-03-02T13:44:36.096Z,2.50
2023-03-02T13:47:04.930Z,2.48
2023-03-02T13:49:36.321Z,2.50
2023-03-02T13:52:08.677Z,2.43
2023-03-02T13:54:38.488Z,2.50
2023-03-02T13:57:07.709Z,2.51
2023-03-02T13:59:37.620Z,2.44
2023-03-02T14:02:27.101Z,2.42
2023-03-02T14:04:57.308Z,2.24
2023-03-02T14:07:26.255Z,2.03
2023-03-02T14:09:56.617Z,1.77
2023-03-02T14:12:31.319Z,1.56
2023-03-02T14:15:02.993Z,1.28
2023-03-02T14:17:32.493Z,1.26
2023-03-02T14:20:01.371Z,1.26
2023-03-02T14:22:32.755Z,1.39
2023-03-02T14:25:01.767Z,1.43
2023-03-02T14:27:32.462Z,1.92
2023-03-02T14:30:01.682Z,2.18
2023-03-02T14:32:32.546Z,2.35
2023-03-02T14:35:01.539Z,2.67
2023-03-02T14:37:31.512Z,2.97
2023-03-02T14:40:00.550Z,3.18
2023-03-02T14:42:30.128Z,3.31
2023-03-02T14:45:00.013Z,3.30
2023-03-02T14:47:28.814Z,3.35
2023-03-02T14:49:57.665Z,3.44
2023-03-02T14:52:37.102Z,3.44
2023-03-02T14:55:19.162Z,3.46
2023-03-02T14:57:53.901Z,3.40
2023-03-02T15:00:24.100Z,3.30
2023-03-02T15:02:53.454Z,3.37
2023-03-02T15:05:25.669Z,3.38
2023-03-02T15:07:58.734Z,3.45
2023-03-02T15:10:28.322Z,3.52
2023-03-02T15:13:00.487Z,3.46
2023-03-02T15:15:30.442Z,3.53
2023-03-02T15:17:59.716Z,3.54
2023-03-02T15:20:29.654Z,3.47
2023-03-02T15:22:59.610Z,3.52
2023-03-02T15:25:30.156Z,3.53
2023-03-02T15:28:03.467Z,3.52
2023-03-02T15:30:32.906Z,3.53
2023-03-02T15:33:01.941Z,3.58
2023-03-02T15:35:31.051Z,3.49
2023-03-02T15:38:03.212Z,3.40
2023-03-02T15:40:32.205Z,3.34
2023-03-02T15:43:01.206Z,3.11
2023-03-02T15:45:30.126Z,3.07
2023-03-02T15:47:59.005Z,2.92
2023-03-02T15:50:27.844Z,2.76
2023-03-02T15:52:58.086Z,2.58
2023-03-02T15:55:27.673Z,2.36
2023-03-02T15:57:59.075Z,2.35
2023-03-02T16:00:29.808Z,2.45
2023-03-02T16:02:58.943Z,2.34
2023-03-02T16:05:27.799Z,2.20
2023-03-02T16:07:56.606Z,2.06
2023-03-02T16:10:27.339Z,1.91
2023-03-02T16:12:56.347Z,1.85
2023-03-02T16:15:25.688Z,1.78
2023-03-02T16:17:54.884Z,1.65
2023-03-02T16:20:23.720Z,1.57
2023-03-02T16:22:52.678Z,1.44
2023-03-02T16:25:21.563Z,1.35
2023-03-02T16:27:55.590Z,1.23
2023-03-02T16:30:25.231Z,1.12
2023-03-02T16:32:59.647Z,0.99
2023-03-02T16:35:30.345Z,1.08
2023-03-02T16:37:59.256Z,1.08
2023-03-02T16:40:28.513Z,1.00
2023-03-02T16:42:57.408Z,1.14
2023-03-02T16:45:27.603Z,1.16
2023-03-02T16:47:56.507Z,1.12
2023-03-02T16:50:25.398Z,1.04
2023-03-02T16:52:54.202Z,1.08
2023-03-02T16:55:23.157Z,1.11
2023-03-02T16:57:52.045Z,1.01
2023-03-02T17:00:22.925Z,0.99
2023-03-02T17:02:54.744Z,1.03
2023-03-02T17:05:24.296Z,0.98
2023-03-02T17:07:53.287Z,0.99
2023-03-02T17:10:22.699Z,0.77
2023-03-02T17:12:51.598Z,0.74
2023-03-02T17:15:20.687Z,0.73
2023-03-02T17:17:49.484Z,0.65
2023-03-02T17:20:18.588Z,0.64
2023-03-02T17:22:47.875Z,0.57
2023-03-02T17:25:18.701Z,0.46
2023-03-02T17:27:47.614Z,0.33
2023-03-02T17:30:16.783Z,0.26
2023-03-02T17:32:45.602Z,0.15
2023-03-02T17:35:15.877Z,-0.03
2023-03-02T17:37:44.696Z,0.01
2023-03-02T17:40:15.131Z,-0.07
2023-03-02T17:42:44.158Z,-0.12
2023-03-02T17:45:21.934Z,-0.06
2023-03-02T17:47:51.774Z,-0.02
2023-03-02T17:50:22.423Z,-0.04
2023-03-02T17:52:51.763Z,-0.07
2023-03-02T17:55:20.971Z,-0.09
2023-03-02T17:57:49.976Z,-0.09
2023-03-02T18:00:22.165Z,-0.04
2023-03-02T18:02:52.116Z,-0.05
2023-03-02T18:05:22.086Z,-0.18
2023-03-02T18:07:52.676Z,-0.21
2023-03-02T18:10:22.168Z,-0.30
2023-03-02T18:12:52.745Z,-0.30
2023-03-02T18:15:24.111Z,-0.42
2023-03-02T18:17:52.936Z,-0.50
2023-03-02T18:20:21.761Z,-0.55
2023-03-02T18:22:50.770Z,-0.63
2023-03-02T18:25:19.851Z,-0.59
2023-03-02T18:27:48.790Z,-0.57
2023-03-02T18:30:18.312Z,-0.59
2023-03-02T18:32:47.225Z,-0.63
2023-03-02T18:35:17.285Z,-0.68
2023-03-02T18:37:46.627Z,-0.70
2023-03-02T18:40:15.655Z,-0.74
2023-03-02T18:42:44.523Z,-0.65
2023-03-02T18:45:23.247Z,-0.58
2023-03-02T18:47:52.812Z,-0.47
2023-03-02T18:50:22.791Z,-0.51
2023-03-02T18:55:57.735Z,-0.59
2023-03-02T18:58:26.464Z,-0.60
2023-03-02T19:00:56.468Z,-0.58
2023-03-02T19:03:25.924Z,-0.65
2023-03-02T19:05:57.953Z,-0.70
2023-03-02T19:08:28.398Z,-0.75
2023-03-02T19:10:57.216Z,-0.84
2023-03-02T19:13:26.117Z,-0.87
2023-03-02T19:15:55.019Z,-0.90
2023-03-02T19:18:26.144Z,-0.98
2023-03-02T19:20:58.274Z,-0.98
2023-03-02T19:23:27.106Z,-0.96
2023-03-02T19:25:55.920Z,-0.98
2023-03-02T19:28:24.740Z,-0.97
2023-03-02T19:30:54.031Z,-1.01
2023-03-02T19:33:25.244Z,-1.02
2023-03-02T19:35:53.989Z,-0.98
2023-03-02T19:38:24.521Z,-0.94
2023-03-02T19:40:53.398Z,-0.99
2023-03-02T19:43:22.135Z,-1.03
2023-03-02T19:45:51.063Z,-1.06
2023-03-02T19:48:20.462Z,-1.12
2023-03-02T19:50:49.519Z,-1.07
2023-03-02T19:53:18.249Z,-1.14
2023-03-02T19:55:47.011Z,-1.12
2023-03-02T19:58:17.946Z,-1.20
2023-03-02T20:00:48.368Z,-1.25
2023-03-02T20:03:17.541Z,-1.28
2023-03-02T20:05:46.221Z,-1.26
2023-03-02T20:08:18.855Z,-1.26
2023-03-02T20:10:50.148Z,-1.27
2023-03-02T20:13:18.953Z,-1.28
2023-03-02T20:15:48.252Z,-1.34
2023-03-02T20:18:19.728Z,-1.39
2023-03-02T20:20:49.288Z,-1.48
2023-03-02T20:23:18.602Z,-1.56
2023-03-02T20:25:48.534Z,-1.49
2023-03-02T20:28:23.104Z,-1.51
2023-03-02T20:30:58.554Z,-1.56
2023-03-02T20:33:33.650Z,-1.54
2023-03-02T20:36:03.690Z,-1.52
2023-03-02T20:38:40.680Z,-1.60
2023-03-02T20:41:11.339Z,-1.56
2023-03-02T20:43:40.982Z,-1.57
2023-03-02T20:46:13.406Z,-1.49
2023-03-02T20:48:42.488Z,-1.50
2023-03-02T20:51:11.386Z,-1.54
2023-03-02T20:54:04.300Z,-1.45
2023-03-02T20:56:34.519Z,-1.40
2023-03-02T20:59:03.420Z,-1.35
2023-03-02T21:01:32.595Z,-1.31
2023-03-02T21:04:01.966Z,-1.28
2023-03-02T21:06:33.865Z,-1.29
2023-03-02T21:09:04.477Z,-1.26
2023-03-02T21:11:34.261Z,-1.21
2023-03-02T21:14:03.884Z,-1.13
2023-03-02T21:16:37.533Z,-1.10
2023-03-02T21:19:09.279Z,-1.10
2023-03-02T21:21:42.052Z,-1.12
2023-03-02T21:24:12.766Z,-1.14
2023-03-02T21:26:42.139Z,-1.19
2023-03-02T21:29:12.461Z,-1.17
2023-03-02T21:31:43.046Z,-1.14
2023-03-02T21:34:13.443Z,-1.15
2023-03-02T21:36:42.844Z,-1.21
2023-03-02T21:39:12.434Z,-1.26
2023-03-02T21:41:41.328Z,-1.32
2023-03-02T21:46:56.169Z,-1.36
2023-03-02T21:49:24.954Z,-1.38
2023-03-02T21:51:53.748Z,-1.43
2023-03-02T21:54:22.657Z,-1.47
2023-03-02T21:56:51.421Z,-1.54
2023-03-02T21:59:20.172Z,-1.58
2023-03-02T22:01:50.505Z,-1.58
2023-03-02T22:04:19.494Z,-1.55
2023-03-02T22:06:49.029Z,-1.47
2023-03-02T22:09:17.770Z,-1.41
2023-03-02T22:11:47.661Z,-1.33
2023-03-02T22:14:18.264Z,-1.27
2023-03-02T22:16:48.645Z,-1.20
2023-03-02T22:19:29.616Z,-1.08
2023-03-02T22:22:03.884Z,-1.08
2023-03-02T22:24:34.059Z,-1.15
2023-03-02T22:27:24.693Z,-1.14
2023-03-02T22:29:56.011Z,-1.17
2023-03-02T22:32:30.660Z,-1.24
2023-03-02T22:35:02.267Z,-1.24
2023-03-02T22:37:35.280Z,-1.11
2023-03-02T22:40:22.208Z,-1.06
2023-03-02T22:42:54.139Z,-1.01
2023-03-02T22:45:23.162Z,-0.99
2023-03-02T22:47:54.819Z,-1.00
2023-03-02T22:50:29.126Z,-1.00
2023-03-02T22:52:59.807Z,-1.02
2023-03-02T22:55:44.308Z,-0.99
2023-03-02T22:58:46.924Z,-0.96
2023-03-02T23:01:27.733Z,-0.92
2023-03-02T23:04:19.860Z,-0.94
2023-03-02T23:06:55.842Z,-0.87
2023-03-02T23:09:27.901Z,-0.91
2023-03-02T23:12:00.525Z,-0.95
2023-03-02T23:14:36.956Z,-0.95
2023-03-02T23:17:42.032Z,-0.95
2023-03-02T23:20:13.696Z,-1.06
2023-03-02T23:22:43.812Z,-1.07
2023-03-02T23:25:13.465Z,-1.08
2023-03-02T23:27:42.174Z,-1.12
2023-03-02T23:30:11.530Z,-1.17
2023-03-02T23:32:40.289Z,-1.24
2023-03-02T23:35:09.501Z,-1.26
2023-03-02T23:37:38.301Z,-1.30
2023-03-02T23:40:07.807Z,-1.31
2023-03-02T23:42:36.731Z,-1.25
2023-03-02T23:45:06.071Z,-1.23
2023-03-02T23:47:35.052Z,-1.14
2023-03-02T23:50:03.760Z,-1.01
2023-03-02T23:52:32.576Z,-0.91
2023-03-02T23:55:01.411Z,-0.86
2023-03-02T23:57:32.207Z,-0.83
